Time;durP1;ratioP1;P1;durP2;ratioP2;P2;SDS_P1;SDS_P2;PMS_P1;PMS_P2;Temp;Humidity;BMP_temperature;BMP_pressure;BME280_temperature;BME280_humidity;BME280_pressure;Samples;Min_cycle;Max_cycle;Signal;HPM_P1;HPM_P2
2021/12/02 17:11:29;;;;;;;3.88;2.10;;;;;;;;;;5112455;27;20410;-83
2021/12/02 17:13:57;;;;;;;7.53;2.17;;;;;;;;;;5093848;28;20039;-79
2021/12/02 17:16:23;;;;;;;4.75;2.15;;;;;;;;;;5093785;28;20381;-80
2021/12/02 17:18:51;;;;;;;6.15;2.00;;;;;;;;;;5093758;28;20019;-80
2021/12/02 17:21:16;;;;;;;5.45;2.17;;;;;;;;;;5111588;28;20024;-81
2021/12/02 17:23:42;;;;;;;5.10;2.08;;;;;;;;;;5111992;28;20027;-79
2021/12/02 17:26:08;;;;;;;5.80;2.00;;;;;;;;;;5092921;28;20024;-79
2021/12/02 19:26:55;;;;;;;7.13;2.40;;;;;;;;;;5130529;28;20164;-83
2021/12/02 19:29:20;;;;;;;3.47;2.42;;;;;;;;;;5129974;28;20069;-82
2021/12/02 19:31:49;;;;;;;6.93;2.90;;;;;;;;;;5130886;28;20389;-80
2021/12/02 19:34:15;;;;;;;5.15;3.05;;;;;;;;;;5130304;28;20110;-83
2021/12/02 19:36:40;;;;;;;4.88;2.88;;;;;;;;;;5129502;28;20442;-83
2021/12/02 19:39:05;;;;;;;3.22;2.75;;;;;;;;;;5131173;28;20035;-83
2021/12/02 19:41:32;;;;;;;4.53;3.22;;;;;;;;;;5131633;28;20027;-83
2021/12/02 19:43:58;;;;;;;3.88;2.80;;;;;;;;;;5130471;28;20106;-79
2021/12/02 19:46:23;;;;;;;5.07;3.25;;;;;;;;;;5129289;28;20474;-79
2021/12/02 19:48:49;;;;;;;5.60;3.60;;;;;;;;;;5112719;28;20072;-80
2021/12/02 19:51:16;;;;;;;5.90;3.83;;;;;;;;;;5130228;28;20350;-83
2021/12/02 19:53:43;;;;;;;7.00;4.82;;;;;;;;;;5124416;27;20027;-81
2021/12/02 19:56:11;;;;;;;7.20;3.88;;;;;;;;;;5111923;28;20470;-79
2021/12/02 19:58:36;;;;;;;7.95;3.95;;;;;;;;;;5112125;28;20032;-79
2021/12/02 20:01:03;;;;;;;5.30;3.60;;;;;;;;;;5125048;28;20406;-80
2021/12/02 20:03:28;;;;;;;4.57;3.20;;;;;;;;;;5123384;28;20024;-81
2021/12/02 20:05:54;;;;;;;3.67;3.25;;;;;;;;;;5127484;28;20153;-80
2021/12/02 20:08:19;;;;;;;4.95;3.50;;;;;;;;;;5126674;28;20386;-81
2021/12/02 20:10:49;;;;;;;5.07;3.28;;;;;;;;;;5122911;28;20024;-82
2021/12/02 20:13:15;;;;;;;4.72;2.90;;;;;;;;;;5103231;28;20468;-82
2021/12/02 20:18:13;;;;;;;3.22;2.45;;;;;;;;;;5107484;28;20031;-82
2021/12/02 20:20:38;;;;;;;4.15;2.50;;;;;;;;;;5072195;28;20053;-83
2021/12/02 20:23:05;;;;;;;4.57;2.40;;;;;;;;;;5107867;28;20024;-83
2021/12/02 20:25:31;;;;;;;3.67;2.55;;;;;;;;;;5105965;28;20121;-83
2021/12/02 20:27:57;;;;;;;7.95;2.90;;;;;;;;;;5078527;28;20039;-83
2021/12/02 20:30:24;;;;;;;9.00;2.95;;;;;;;;;;5078047;28;20471;-84
2021/12/02 20:32:50;;;;;;;3.40;2.60;;;;;;;;;;5094926;28;20031;-81
2021/12/02 20:35:16;;;;;;;5.45;2.88;;;;;;;;;;5097906;28;20031;-84
2021/12/02 20:37:42;;;;;;;5.53;2.50;;;;;;;;;;5098968;28;20040;-83
2021/12/02 20:40:11;;;;;;;5.15;2.88;;;;;;;;;;5085712;28;20092;-82
2021/12/02 20:42:36;;;;;;;5.03;2.50;;;;;;;;;;5110397;28;20065;-81
2021/12/02 20:45:02;;;;;;;4.35;3.08;;;;;;;;;;5108460;28;20039;-82
2021/12/02 20:47:30;;;;;;;6.18;2.40;;;;;;;;;;5102039;28;20207;-80
2021/12/02 20:49:59;;;;;;;2.60;2.40;;;;;;;;;;5100422;28;20028;-82
2021/12/02 20:52:30;;;;;;;3.80;2.42;;;;;;;;;;5099171;28;20066;-82
2021/12/02 20:54:59;;;;;;;3.80;2.47;;;;;;;;;;5097949;28;20044;-84
2021/12/02 20:57:25;;;;;;;4.03;2.40;;;;;;;;;;5098903;28;20177;-82
2021/12/02 20:59:51;;;;;;;3.45;2.63;;;;;;;;;;5081681;28;20022;-82
2021/12/02 21:02:21;;;;;;;6.45;3.67;;;;;;;;;;5099088;28;20031;-85
2021/12/02 21:04:46;;;;;;;4.97;2.88;;;;;;;;;;5096313;28;20459;-84
2021/12/02 21:07:12;;;;;;;4.75;3.50;;;;;;;;;;5076133;28;20040;-84
2021/12/02 21:09:38;;;;;;;7.65;3.58;;;;;;;;;;5077497;28;20032;-83
2021/12/02 21:12:07;;;;;;;4.53;2.78;;;;;;;;;;5079205;28;20028;-83
2021/12/02 21:14:36;;;;;;;3.70;2.63;;;;;;;;;;5078124;28;20040;-84
2021/12/02 21:17:02;;;;;;;5.72;3.00;;;;;;;;;;5077874;28;20031;-83
2021/12/02 21:19:28;;;;;;;3.67;2.50;;;;;;;;;;5077561;28;20028;-83
2021/12/02 21:21:53;;;;;;;5.65;2.28;;;;;;;;;;5077412;28;20113;-82
2021/12/02 21:24:19;;;;;;;2.90;2.38;;;;;;;;;;5076590;28;20060;-83
2021/12/02 21:26:44;;;;;;;4.38;2.45;;;;;;;;;;5078496;28;20407;-83
2021/12/02 21:29:10;;;;;;;4.15;2.53;;;;;;;;;;5062331;28;20056;-84
2021/12/02 21:31:37;;;;;;;2.88;2.20;;;;;;;;;;5078849;28;20402;-83
2021/12/02 21:34:03;;;;;;;5.10;2.20;;;;;;;;;;5079209;28;20021;-84
2021/12/02 21:36:33;;;;;;;2.92;2.10;;;;;;;;;;5076707;28;20388;-84
2021/12/02 21:39:03;;;;;;;3.22;2.03;;;;;;;;;;5077246;28;20356;-85
2021/12/02 21:41:29;;;;;;;3.42;2.38;;;;;;;;;;5075080;28;20020;-84
2021/12/02 21:43:54;;;;;;;2.67;2.25;;;;;;;;;;5057033;28;20028;-84
2021/12/02 21:46:23;;;;;;;4.05;2.30;;;;;;;;;;5074777;28;20029;-84
2021/12/02 21:48:49;;;;;;;5.10;2.53;;;;;;;;;;5073417;28;20373;-84
2021/12/02 21:51:14;;;;;;;4.53;2.90;;;;;;;;;;5074303;28;20025;-82
2021/12/02 21:53:39;;;;;;;4.45;2.60;;;;;;;;;;5074429;28;20031;-81
2021/12/02 21:56:06;;;;;;;3.38;2.25;;;;;;;;;;5073770;28;20101;-79
2021/12/02 21:58:33;;;;;;;3.63;2.50;;;;;;;;;;5073272;28;20025;-80
2021/12/02 22:01:13;;;;;;;4.38;2.67;;;;;;;;;;5072209;28;20074;-80
2021/12/02 22:03:38;;;;;;;4.78;3.13;;;;;;;;;;5071439;28;20480;-80
2021/12/02 22:06:04;;;;;;;6.43;2.60;;;;;;;;;;5071779;28;20078;-80
2021/12/02 22:08:31;;;;;;;4.60;2.75;;;;;;;;;;5071582;28;20028;-82
2021/12/02 22:10:58;;;;;;;3.58;2.70;;;;;;;;;;5073294;28;20051;-81
2021/12/02 22:13:23;;;;;;;4.10;2.63;;;;;;;;;;5073151;28;20547;-81
2021/12/02 22:15:49;;;;;;;4.38;3.25;;;;;;;;;;5071511;28;20147;-81
